Ordos Ejin Horo Airport


Codes: ZBDS/DSN
Name: Ordos Ejin Horo Airport
City: Ordos
Country: China
Elevation: 4557 ft.
Wikipedia:

Photos at Ordos Ejin Horo Airport


   Photos courtesy of SpottingLog. You can add your own sightings and photos by signing up for a free trial today.



No photos found.

Weather at Ordos Ejin Horo Airport


Time (UTC)DescriptionTempratureWindCloud coverageVisibilityPressureHumidity
21-Feb-2024 03:00Light Snow-10°C18 mph, NE100%360m1034hPa89%
21-Feb-2024 06:00Light Snow-9°C18 mph, NE100%2140m1033hPa84%
21-Feb-2024 09:00Light Snow-8°C18 mph, NE100%4116m1034hPa82%
21-Feb-2024 12:00Light Snow-9°C16 mph, NE100%1535m1037hPa89%
21-Feb-2024 15:00Light Snow-10°C13 mph, E100%10000m1037hPa68%
21-Feb-2024 18:00Overcast Clouds-11°C11 mph, NE99%10000m1037hPa68%
21-Feb-2024 21:00Overcast Clouds-12°C9 mph, NE93%10000m1038hPa74%
22-Feb-2024 00:00Broken Clouds-14°C7 mph, NE67%10000m1040hPa74%
22-Feb-2024 03:00Overcast Clouds-10°C7 mph, E93%10000m1038hPa78%
22-Feb-2024 06:00Overcast Clouds-7°C4 mph, SE97%10000m1034hPa70%
22-Feb-2024 09:00Overcast Clouds-6°C4 mph, SE100%10000m1032hPa75%
22-Feb-2024 12:00Overcast Clouds-8°C0 mph, SE100%10000m1035hPa89%
22-Feb-2024 15:00Overcast Clouds-7°C2 mph, SE100%10000m1036hPa93%
22-Feb-2024 18:00Overcast Clouds-8°C4 mph, SE100%4343m1035hPa95%
22-Feb-2024 21:00Light Snow-8°C2 mph, W100%1354m1035hPa96%
23-Feb-2024 00:00Overcast Clouds-8°C2 mph, S100%709m1035hPa95%
23-Feb-2024 03:00Overcast Clouds-6°C2 mph, SW100%10000m1034hPa76%
23-Feb-2024 06:00Overcast Clouds-4°C4 mph, SW100%10000m1032hPa78%
23-Feb-2024 09:00Light Snow-4°C2 mph, S100%10000m1031hPa77%
23-Feb-2024 12:00Light Snow-5°C2 mph, SW100%168m1033hPa96%
23-Feb-2024 15:00Light Snow-5°C2 mph, N100%533m1033hPa95%
23-Feb-2024 18:00Light Snow-7°C4 mph, N100%4949m1034hPa94%
23-Feb-2024 21:00Overcast Clouds-8°C4 mph, N99%10000m1033hPa90%
24-Feb-2024 00:00Overcast Clouds-8°C4 mph, N97%10000m1035hPa89%
24-Feb-2024 03:00Overcast Clouds-5°C4 mph, NE100%10000m1034hPa72%
24-Feb-2024 06:00Overcast Clouds-3°C4 mph, NE100%10000m1030hPa68%
24-Feb-2024 09:00Overcast Clouds-2°C2 mph, NE100%10000m1029hPa65%
24-Feb-2024 12:00Overcast Clouds-5°C2 mph, NE100%10000m1032hPa83%
24-Feb-2024 15:00Overcast Clouds-7°C0 mph, NE85%10000m1033hPa89%
24-Feb-2024 18:00Scattered Clouds-8°C2 mph, SW49%10000m1033hPa92%
24-Feb-2024 21:00Few Clouds-8°C2 mph, W11%10000m1033hPa95%
25-Feb-2024 00:00Few Clouds-8°C2 mph, W12%10000m1034hPa95%
25-Feb-2024 03:00Scattered Clouds-5°C4 mph, NW48%10000m1032hPa76%
25-Feb-2024 06:00Broken Clouds-2°C4 mph, W74%10000m1030hPa68%
25-Feb-2024 09:00Overcast Clouds-2°C4 mph, NW100%10000m1029hPa64%
25-Feb-2024 12:00Overcast Clouds-4°C4 mph, N100%10000m1032hPa77%
25-Feb-2024 15:00Overcast Clouds-5°C2 mph, N100%10000m1033hPa77%
25-Feb-2024 18:00Overcast Clouds-6°C2 mph, E100%10000m1032hPa76%
25-Feb-2024 21:00Overcast Clouds-6°C4 mph, E100%10000m1031hPa76%
26-Feb-2024 00:00Overcast Clouds-5°C4 mph, E100%10000m1031hPa77%